sensor_id;sensor_type;location;lat;lon;timestamp;P1;durP1;ratioP1;P2;durP2;ratioP2
10801;SDS011;5453;50.852;7.102;2023-05-14T00:01:23;5.85;;;3.80;;
10801;SDS011;5453;50.852;7.102;2023-05-14T00:03:55;4.95;;;3.72;;
10801;SDS011;5453;50.852;7.102;2023-05-14T00:06:28;6.18;;;3.83;;
10801;SDS011;5453;50.852;7.102;2023-05-14T00:09:00;5.50;;;3.53;;
10801;SDS011;5453;50.852;7.102;2023-05-14T00:11:33;5.20;;;3.40;;
10801;SDS011;5453;50.852;7.102;2023-05-14T00:14:05;9.10;;;3.45;;
10801;SDS011;5453;50.852;7.102;2023-05-14T00:16:38;5.18;;;3.53;;
10801;SDS011;5453;50.852;7.102;2023-05-14T00:19:10;5.97;;;4.10;;
10801;SDS011;5453;50.852;7.102;2023-05-14T00:21:45;5.70;;;3.60;;
10801;SDS011;5453;50.852;7.102;2023-05-14T00:24:17;5.38;;;3.60;;
10801;SDS011;5453;50.852;7.102;2023-05-14T00:26:50;5.22;;;3.30;;
10801;SDS011;5453;50.852;7.102;2023-05-14T00:29:23;5.00;;;3.55;;
10801;SDS011;5453;50.852;7.102;2023-05-14T00:31:55;6.07;;;3.63;;
10801;SDS011;5453;50.852;7.102;2023-05-14T00:34:27;6.28;;;3.67;;
10801;SDS011;5453;50.852;7.102;2023-05-14T00:37:01;4.75;;;3.28;;
10801;SDS011;5453;50.852;7.102;2023-05-14T00:39:33;5.00;;;3.47;;
10801;SDS011;5453;50.852;7.102;2023-05-14T00:42:06;6.45;;;4.00;;
10801;SDS011;5453;50.852;7.102;2023-05-14T00:44:38;5.05;;;3.65;;
10801;SDS011;5453;50.852;7.102;2023-05-14T00:47:10;4.78;;;3.45;;
10801;SDS011;5453;50.852;7.102;2023-05-14T00:49:43;5.53;;;3.38;;
10801;SDS011;5453;50.852;7.102;2023-05-14T00:52:17;4.97;;;3.33;;
10801;SDS011;5453;50.852;7.102;2023-05-14T00:54:49;5.65;;;3.70;;
10801;SDS011;5453;50.852;7.102;2023-05-14T00:57:22;4.65;;;3.22;;
10801;SDS011;5453;50.852;7.102;2023-05-14T00:59:54;5.13;;;3.50;;
10801;SDS011;5453;50.852;7.102;2023-05-14T01:02:27;5.45;;;3.38;;
10801;SDS011;5453;50.852;7.102;2023-05-14T01:04:59;5.25;;;3.50;;
10801;SDS011;5453;50.852;7.102;2023-05-14T01:07:35;5.30;;;3.55;;
10801;SDS011;5453;50.852;7.102;2023-05-14T01:10:18;6.32;;;3.70;;
10801;SDS011;5453;50.852;7.102;2023-05-14T01:13:01;6.20;;;3.72;;
10801;SDS011;5453;50.852;7.102;2023-05-14T01:15:43;4.45;;;2.92;;
10801;SDS011;5453;50.852;7.102;2023-05-14T01:18:18;4.75;;;3.08;;
10801;SDS011;5453;50.852;7.102;2023-05-14T01:20:50;5.75;;;3.70;;
10801;SDS011;5453;50.852;7.102;2023-05-14T01:23:25;4.97;;;3.50;;
10801;SDS011;5453;50.852;7.102;2023-05-14T01:25:57;4.57;;;3.42;;
10801;SDS011;5453;50.852;7.102;2023-05-14T01:28:31;4.45;;;2.90;;
10801;SDS011;5453;50.852;7.102;2023-05-14T01:31:06;5.07;;;3.03;;
10801;SDS011;5453;50.852;7.102;2023-05-14T01:33:44;5.68;;;3.85;;
10801;SDS011;5453;50.852;7.102;2023-05-14T01:36:20;5.55;;;3.95;;
10801;SDS011;5453;50.852;7.102;2023-05-14T01:38:54;5.95;;;3.53;;
10801;SDS011;5453;50.852;7.102;2023-05-14T01:41:27;5.85;;;3.78;;
10801;SDS011;5453;50.852;7.102;2023-05-14T01:44:01;5.13;;;3.50;;
10801;SDS011;5453;50.852;7.102;2023-05-14T01:46:34;5.10;;;3.58;;
10801;SDS011;5453;50.852;7.102;2023-05-14T01:49:07;6.13;;;3.95;;
10801;SDS011;5453;50.852;7.102;2023-05-14T01:51:39;5.53;;;3.78;;
10801;SDS011;5453;50.852;7.102;2023-05-14T01:54:15;6.65;;;3.88;;
10801;SDS011;5453;50.852;7.102;2023-05-14T01:56:47;6.30;;;3.72;;
10801;SDS011;5453;50.852;7.102;2023-05-14T01:59:20;6.20;;;4.28;;
10801;SDS011;5453;50.852;7.102;2023-05-14T02:01:52;5.85;;;3.60;;
10801;SDS011;5453;50.852;7.102;2023-05-14T02:04:24;6.50;;;3.55;;
10801;SDS011;5453;50.852;7.102;2023-05-14T02:06:56;5.22;;;3.80;;
10801;SDS011;5453;50.852;7.102;2023-05-14T02:09:30;6.75;;;3.92;;
10801;SDS011;5453;50.852;7.102;2023-05-14T02:12:03;5.53;;;3.72;;
10801;SDS011;5453;50.852;7.102;2023-05-14T02:14:36;5.95;;;4.00;;
10801;SDS011;5453;50.852;7.102;2023-05-14T02:17:08;5.20;;;4.03;;
10801;SDS011;5453;50.852;7.102;2023-05-14T02:19:41;5.93;;;3.83;;
10801;SDS011;5453;50.852;7.102;2023-05-14T02:22:14;6.53;;;4.00;;
10801;SDS011;5453;50.852;7.102;2023-05-14T02:24:48;5.60;;;4.10;;
10801;SDS011;5453;50.852;7.102;2023-05-14T02:27:21;5.60;;;3.88;;
10801;SDS011;5453;50.852;7.102;2023-05-14T02:29:54;5.78;;;3.97;;
10801;SDS011;5453;50.852;7.102;2023-05-14T02:32:30;6.60;;;4.10;;
10801;SDS011;5453;50.852;7.102;2023-05-14T02:35:02;6.80;;;4.43;;
10801;SDS011;5453;50.852;7.102;2023-05-14T02:37:35;5.95;;;3.80;;
10801;SDS011;5453;50.852;7.102;2023-05-14T02:40:09;6.75;;;4.25;;
10801;SDS011;5453;50.852;7.102;2023-05-14T02:42:42;8.73;;;4.40;;
10801;SDS011;5453;50.852;7.102;2023-05-14T02:45:14;6.90;;;4.43;;
10801;SDS011;5453;50.852;7.102;2023-05-14T02:47:46;5.57;;;3.55;;
10801;SDS011;5453;50.852;7.102;2023-05-14T02:50:19;6.85;;;3.95;;
10801;SDS011;5453;50.852;7.102;2023-05-14T02:52:51;7.13;;;3.83;;
10801;SDS011;5453;50.852;7.102;2023-05-14T02:55:24;5.78;;;3.75;;
10801;SDS011;5453;50.852;7.102;2023-05-14T02:57:57;5.65;;;3.90;;
10801;SDS011;5453;50.852;7.102;2023-05-14T03:00:29;5.10;;;3.55;;
10801;SDS011;5453;50.852;7.102;2023-05-14T03:03:02;5.35;;;3.42;;
10801;SDS011;5453;50.852;7.102;2023-05-14T03:05:34;4.25;;;2.90;;
10801;SDS011;5453;50.852;7.102;2023-05-14T03:08:06;4.55;;;3.22;;
10801;SDS011;5453;50.852;7.102;2023-05-14T03:10:39;5.25;;;3.55;;
10801;SDS011;5453;50.852;7.102;2023-05-14T03:13:12;7.65;;;3.42;;
10801;SDS011;5453;50.852;7.102;2023-05-14T03:15:46;4.35;;;3.50;;
10801;SDS011;5453;50.852;7.102;2023-05-14T03:18:23;5.20;;;3.33;;
10801;SDS011;5453;50.852;7.102;2023-05-14T03:20:57;5.72;;;3.47;;
10801;SDS011;5453;50.852;7.102;2023-05-14T03:23:29;7.07;;;4.47;;
10801;SDS011;5453;50.852;7.102;2023-05-14T03:26:05;6.13;;;4.07;;
10801;SDS011;5453;50.852;7.102;2023-05-14T03:28:37;7.13;;;4.07;;
10801;SDS011;5453;50.852;7.102;2023-05-14T03:31:10;7.25;;;4.43;;
10801;SDS011;5453;50.852;7.102;2023-05-14T03:33:42;7.18;;;4.25;;
10801;SDS011;5453;50.852;7.102;2023-05-14T03:36:14;6.53;;;3.92;;
10801;SDS011;5453;50.852;7.102;2023-05-14T03:38:46;7.57;;;4.45;;
10801;SDS011;5453;50.852;7.102;2023-05-14T03:41:20;5.72;;;3.50;;
10801;SDS011;5453;50.852;7.102;2023-05-14T03:43:53;6.05;;;3.47;;
10801;SDS011;5453;50.852;7.102;2023-05-14T03:46:26;6.15;;;3.90;;
10801;SDS011;5453;50.852;7.102;2023-05-14T03:48:59;5.50;;;3.97;;
10801;SDS011;5453;50.852;7.102;2023-05-14T03:51:32;6.05;;;3.92;;
10801;SDS011;5453;50.852;7.102;2023-05-14T03:54:04;6.68;;;3.80;;
10801;SDS011;5453;50.852;7.102;2023-05-14T03:56:38;5.47;;;3.90;;
10801;SDS011;5453;50.852;7.102;2023-05-14T04:01:44;5.65;;;3.83;;
10801;SDS011;5453;50.852;7.102;2023-05-14T04:04:16;5.72;;;3.38;;
10801;SDS011;5453;50.852;7.102;2023-05-14T04:06:49;6.18;;;3.70;;
10801;SDS011;5453;50.852;7.102;2023-05-14T04:09:21;6.13;;;4.03;;
10801;SDS011;5453;50.852;7.102;2023-05-14T04:11:56;6.97;;;3.92;;
10801;SDS011;5453;50.852;7.102;2023-05-14T04:14:28;7.30;;;4.38;;
10801;SDS011;5453;50.852;7.102;2023-05-14T04:17:00;5.40;;;3.63;;
10801;SDS011;5453;50.852;7.102;2023-05-14T04:19:32;5.80;;;3.88;;
10801;SDS011;5453;50.852;7.102;2023-05-14T04:22:06;6.63;;;3.88;;
10801;SDS011;5453;50.852;7.102;2023-05-14T04:24:38;5.45;;;3.75;;
10801;SDS011;5453;50.852;7.102;2023-05-14T04:27:12;5.80;;;3.88;;
10801;SDS011;5453;50.852;7.102;2023-05-14T04:29:50;5.70;;;3.90;;
10801;SDS011;5453;50.852;7.102;2023-05-14T04:32:22;6.40;;;3.58;;
10801;SDS011;5453;50.852;7.102;2023-05-14T04:34:54;6.63;;;3.90;;
10801;SDS011;5453;50.852;7.102;2023-05-14T04:37:26;5.75;;;4.10;;
10801;SDS011;5453;50.852;7.102;2023-05-14T04:39:58;7.05;;;4.30;;
10801;SDS011;5453;50.852;7.102;2023-05-14T04:42:32;6.32;;;4.30;;
10801;SDS011;5453;50.852;7.102;2023-05-14T04:45:05;7.00;;;4.35;;
10801;SDS011;5453;50.852;7.102;2023-05-14T04:47:38;6.25;;;4.60;;
10801;SDS011;5453;50.852;7.102;2023-05-14T04:50:11;6.65;;;4.57;;
10801;SDS011;5453;50.852;7.102;2023-05-14T04:52:43;7.68;;;4.85;;
10801;SDS011;5453;50.852;7.102;2023-05-14T04:55:15;12.10;;;5.60;;
10801;SDS011;5453;50.852;7.102;2023-05-14T04:57:49;7.53;;;4.70;;
10801;SDS011;5453;50.852;7.102;2023-05-14T05:00:21;8.85;;;5.72;;
10801;SDS011;5453;50.852;7.102;2023-05-14T05:02:53;7.80;;;4.65;;
10801;SDS011;5453;50.852;7.102;2023-05-14T05:05:26;8.35;;;5.20;;
10801;SDS011;5453;50.852;7.102;2023-05-14T05:07:58;7.95;;;4.82;;
10801;SDS011;5453;50.852;7.102;2023-05-14T05:10:30;9.63;;;5.85;;
10801;SDS011;5453;50.852;7.102;2023-05-14T05:13:03;9.68;;;6.15;;
10801;SDS011;5453;50.852;7.102;2023-05-14T05:15:35;9.55;;;6.40;;
10801;SDS011;5453;50.852;7.102;2023-05-14T05:18:08;9.50;;;6.10;;
10801;SDS011;5453;50.852;7.102;2023-05-14T05:20:40;9.73;;;6.28;;
10801;SDS011;5453;50.852;7.102;2023-05-14T05:23:12;9.32;;;6.20;;
10801;SDS011;5453;50.852;7.102;2023-05-14T05:25:44;9.93;;;6.97;;
10801;SDS011;5453;50.852;7.102;2023-05-14T05:28:18;8.98;;;6.22;;
10801;SDS011;5453;50.852;7.102;2023-05-14T05:30:50;9.50;;;5.93;;
10801;SDS011;5453;50.852;7.102;2023-05-14T05:33:22;8.95;;;6.03;;
10801;SDS011;5453;50.852;7.102;2023-05-14T05:35:55;9.68;;;5.82;;
10801;SDS011;5453;50.852;7.102;2023-05-14T05:38:27;10.15;;;5.45;;
10801;SDS011;5453;50.852;7.102;2023-05-14T05:40:59;9.57;;;5.40;;
10801;SDS011;5453;50.852;7.102;2023-05-14T05:43:33;8.48;;;5.60;;
10801;SDS011;5453;50.852;7.102;2023-05-14T05:46:05;9.27;;;5.32;;
10801;SDS011;5453;50.852;7.102;2023-05-14T05:48:38;8.82;;;5.28;;
10801;SDS011;5453;50.852;7.102;2023-05-14T05:51:10;9.35;;;5.32;;
10801;SDS011;5453;50.852;7.102;2023-05-14T05:53:42;8.38;;;5.28;;
10801;SDS011;5453;50.852;7.102;2023-05-14T05:56:14;6.63;;;4.60;;
10801;SDS011;5453;50.852;7.102;2023-05-14T05:58:48;6.95;;;4.90;;
10801;SDS011;5453;50.852;7.102;2023-05-14T06:01:21;7.20;;;4.88;;
10801;SDS011;5453;50.852;7.102;2023-05-14T06:03:53;8.13;;;5.30;;
10801;SDS011;5453;50.852;7.102;2023-05-14T06:06:25;6.97;;;4.78;;
10801;SDS011;5453;50.852;7.102;2023-05-14T06:08:58;6.43;;;4.47;;
10801;SDS011;5453;50.852;7.102;2023-05-14T06:11:31;6.78;;;4.72;;
10801;SDS011;5453;50.852;7.102;2023-05-14T06:14:04;7.40;;;4.88;;
10801;SDS011;5453;50.852;7.102;2023-05-14T06:16:36;6.57;;;4.47;;
10801;SDS011;5453;50.852;7.102;2023-05-14T06:19:08;6.70;;;4.70;;
10801;SDS011;5453;50.852;7.102;2023-05-14T06:21:40;6.57;;;4.38;;
10801;SDS011;5453;50.852;7.102;2023-05-14T06:24:13;8.93;;;4.40;;
10801;SDS011;5453;50.852;7.102;2023-05-14T06:26:45;6.63;;;4.45;;
10801;SDS011;5453;50.852;7.102;2023-05-14T06:29:19;6.75;;;4.32;;
10801;SDS011;5453;50.852;7.102;2023-05-14T06:31:51;6.90;;;4.43;;
10801;SDS011;5453;50.852;7.102;2023-05-14T06:34:23;6.28;;;4.55;;
10801;SDS011;5453;50.852;7.102;2023-05-14T06:36:55;7.30;;;4.40;;
10801;SDS011;5453;50.852;7.102;2023-05-14T06:39:28;8.52;;;4.40;;
10801;SDS011;5453;50.852;7.102;2023-05-14T06:42:00;8.63;;;4.53;;
10801;SDS011;5453;50.852;7.102;2023-05-14T06:44:35;6.65;;;4.22;;
10801;SDS011;5453;50.852;7.102;2023-05-14T06:47:07;5.60;;;4.00;;
10801;SDS011;5453;50.852;7.102;2023-05-14T06:49:39;7.47;;;4.28;;
10801;SDS011;5453;50.852;7.102;2023-05-14T06:52:11;6.95;;;4.35;;
10801;SDS011;5453;50.852;7.102;2023-05-14T06:54:43;5.75;;;4.13;;
10801;SDS011;5453;50.852;7.102;2023-05-14T06:57:15;6.10;;;4.63;;
10801;SDS011;5453;50.852;7.102;2023-05-14T06:59:49;6.47;;;4.70;;
10801;SDS011;5453;50.852;7.102;2023-05-14T07:02:21;8.15;;;4.50;;
10801;SDS011;5453;50.852;7.102;2023-05-14T07:04:53;6.93;;;4.72;;
10801;SDS011;5453;50.852;7.102;2023-05-14T07:07:25;6.55;;;4.50;;
10801;SDS011;5453;50.852;7.102;2023-05-14T07:09:57;6.60;;;4.07;;
10801;SDS011;5453;50.852;7.102;2023-05-14T07:12:30;6.30;;;4.13;;
10801;SDS011;5453;50.852;7.102;2023-05-14T07:15:04;7.50;;;4.10;;
10801;SDS011;5453;50.852;7.102;2023-05-14T07:17:38;5.55;;;4.15;;
10801;SDS011;5453;50.852;7.102;2023-05-14T07:20:10;6.70;;;4.22;;
10801;SDS011;5453;50.852;7.102;2023-05-14T07:22:43;6.30;;;3.85;;
10801;SDS011;5453;50.852;7.102;2023-05-14T07:25:15;7.10;;;4.22;;
10801;SDS011;5453;50.852;7.102;2023-05-14T07:27:47;6.85;;;3.70;;
10801;SDS011;5453;50.852;7.102;2023-05-14T07:30:21;7.03;;;4.18;;
10801;SDS011;5453;50.852;7.102;2023-05-14T07:32:53;5.35;;;4.05;;
10801;SDS011;5453;50.852;7.102;2023-05-14T07:35:25;5.32;;;3.67;;
10801;SDS011;5453;50.852;7.102;2023-05-14T07:37:57;5.18;;;3.60;;
10801;SDS011;5453;50.852;7.102;2023-05-14T07:40:29;3.63;;;3.22;;
10801;SDS011;5453;50.852;7.102;2023-05-14T07:43:01;4.07;;;3.15;;
10801;SDS011;5453;50.852;7.102;2023-05-14T07:45:34;4.88;;;3.45;;
10801;SDS011;5453;50.852;7.102;2023-05-14T07:48:07;7.50;;;3.80;;
10801;SDS011;5453;50.852;7.102;2023-05-14T07:50:40;5.35;;;3.70;;
10801;SDS011;5453;50.852;7.102;2023-05-14T07:53:12;5.45;;;3.33;;
10801;SDS011;5453;50.852;7.102;2023-05-14T07:55:44;4.40;;;3.40;;
10801;SDS011;5453;50.852;7.102;2023-05-14T07:58:17;4.15;;;3.13;;
10801;SDS011;5453;50.852;7.102;2023-05-14T08:00:50;4.95;;;3.50;;
10801;SDS011;5453;50.852;7.102;2023-05-14T08:03:22;4.45;;;3.08;;
10801;SDS011;5453;50.852;7.102;2023-05-14T08:05:54;5.53;;;3.10;;
10801;SDS011;5453;50.852;7.102;2023-05-14T08:08:27;3.78;;;2.60;;
10801;SDS011;5453;50.852;7.102;2023-05-14T08:10:59;4.13;;;3.28;;
10801;SDS011;5453;50.852;7.102;2023-05-14T08:13:32;4.18;;;3.10;;
10801;SDS011;5453;50.852;7.102;2023-05-14T08:16:06;4.00;;;2.88;;
10801;SDS011;5453;50.852;7.102;2023-05-14T08:18:38;6.15;;;3.30;;
10801;SDS011;5453;50.852;7.102;2023-05-14T08:21:10;4.60;;;2.95;;
10801;SDS011;5453;50.852;7.102;2023-05-14T08:23:42;4.22;;;3.03;;
10801;SDS011;5453;50.852;7.102;2023-05-14T08:26:14;3.35;;;2.50;;
10801;SDS011;5453;50.852;7.102;2023-05-14T08:28:46;4.55;;;2.85;;
10801;SDS011;5453;50.852;7.102;2023-05-14T08:31:20;3.42;;;2.35;;
10801;SDS011;5453;50.852;7.102;2023-05-14T08:33:52;2.70;;;2.22;;
10801;SDS011;5453;50.852;7.102;2023-05-14T08:36:24;3.90;;;2.38;;
10801;SDS011;5453;50.852;7.102;2023-05-14T08:38:57;3.97;;;2.53;;
10801;SDS011;5453;50.852;7.102;2023-05-14T08:41:29;2.80;;;2.33;;
10801;SDS011;5453;50.852;7.102;2023-05-14T08:44:05;3.50;;;2.10;;
10801;SDS011;5453;50.852;7.102;2023-05-14T08:46:40;3.85;;;2.20;;
10801;SDS011;5453;50.852;7.102;2023-05-14T08:49:14;2.55;;;2.05;;
10801;SDS011;5453;50.852;7.102;2023-05-14T08:51:55;3.05;;;2.25;;
10801;SDS011;5453;50.852;7.102;2023-05-14T08:54:28;2.60;;;1.95;;
10801;SDS011;5453;50.852;7.102;2023-05-14T08:57:01;3.95;;;2.50;;
10801;SDS011;5453;50.852;7.102;2023-05-14T08:59:34;2.70;;;2.20;;
10801;SDS011;5453;50.852;7.102;2023-05-14T09:02:08;2.25;;;2.03;;
10801;SDS011;5453;50.852;7.102;2023-05-14T09:04:42;3.90;;;2.10;;
10801;SDS011;5453;50.852;7.102;2023-05-14T09:07:15;3.53;;;2.00;;
10801;SDS011;5453;50.852;7.102;2023-05-14T09:09:47;2.85;;;2.28;;
10801;SDS011;5453;50.852;7.102;2023-05-14T09:12:19;3.45;;;2.17;;
10801;SDS011;5453;50.852;7.102;2023-05-14T09:14:52;2.80;;;2.30;;
10801;SDS011;5453;50.852;7.102;2023-05-14T09:17:25;2.97;;;2.30;;
10801;SDS011;5453;50.852;7.102;2023-05-14T09:19:58;3.92;;;2.28;;
10801;SDS011;5453;50.852;7.102;2023-05-14T09:22:30;2.75;;;2.25;;
10801;SDS011;5453;50.852;7.102;2023-05-14T09:25:03;2.55;;;2.30;;
10801;SDS011;5453;50.852;7.102;2023-05-14T09:27:38;2.20;;;2.00;;
10801;SDS011;5453;50.852;7.102;2023-05-14T09:30:11;2.60;;;2.20;;
10801;SDS011;5453;50.852;7.102;2023-05-14T09:32:46;2.95;;;2.33;;
10801;SDS011;5453;50.852;7.102;2023-05-14T09:35:21;2.65;;;2.13;;
10801;SDS011;5453;50.852;7.102;2023-05-14T09:37:54;3.63;;;2.67;;
10801;SDS011;5453;50.852;7.102;2023-05-14T09:40:26;3.05;;;2.53;;
10801;SDS011;5453;50.852;7.102;2023-05-14T09:42:58;2.90;;;2.35;;
10801;SDS011;5453;50.852;7.102;2023-05-14T09:45:31;3.10;;;2.38;;
10801;SDS011;5453;50.852;7.102;2023-05-14T09:48:06;3.15;;;2.45;;
10801;SDS011;5453;50.852;7.102;2023-05-14T09:50:40;3.65;;;2.63;;
10801;SDS011;5453;50.852;7.102;2023-05-14T09:53:13;4.03;;;2.63;;
10801;SDS011;5453;50.852;7.102;2023-05-14T09:55:46;2.92;;;2.50;;
10801;SDS011;5453;50.852;7.102;2023-05-14T09:58:18;3.85;;;2.83;;
10801;SDS011;5453;50.852;7.102;2023-05-14T10:00:50;2.78;;;2.45;;
10801;SDS011;5453;50.852;7.102;2023-05-14T10:03:25;2.78;;;2.42;;
10801;SDS011;5453;50.852;7.102;2023-05-14T10:06:03;3.70;;;2.75;;
10801;SDS011;5453;50.852;7.102;2023-05-14T10:08:37;3.80;;;2.55;;
10801;SDS011;5453;50.852;7.102;2023-05-14T10:11:18;3.08;;;2.42;;
10801;SDS011;5453;50.852;7.102;2023-05-14T10:13:54;3.70;;;2.70;;
10801;SDS011;5453;50.852;7.102;2023-05-14T10:16:34;2.97;;;2.63;;
10801;SDS011;5453;50.852;7.102;2023-05-14T10:19:12;2.80;;;2.30;;
10801;SDS011;5453;50.852;7.102;2023-05-14T10:21:47;2.53;;;2.33;;
10801;SDS011;5453;50.852;7.102;2023-05-14T10:24:26;3.15;;;2.35;;
10801;SDS011;5453;50.852;7.102;2023-05-14T10:26:59;2.53;;;2.33;;
10801;SDS011;5453;50.852;7.102;2023-05-14T10:29:32;3.13;;;2.70;;
10801;SDS011;5453;50.852;7.102;2023-05-14T10:32:06;4.18;;;3.08;;
10801;SDS011;5453;50.852;7.102;2023-05-14T10:34:41;3.42;;;2.65;;
10801;SDS011;5453;50.852;7.102;2023-05-14T10:37:14;3.40;;;2.70;;
10801;SDS011;5453;50.852;7.102;2023-05-14T10:39:49;2.90;;;2.60;;
10801;SDS011;5453;50.852;7.102;2023-05-14T10:42:23;7.90;;;3.88;;
10801;SDS011;5453;50.852;7.102;2023-05-14T10:44:59;8.25;;;4.47;;
10801;SDS011;5453;50.852;7.102;2023-05-14T10:47:35;7.15;;;3.85;;
10801;SDS011;5453;50.852;7.102;2023-05-14T10:50:10;6.65;;;4.00;;
10801;SDS011;5453;50.852;7.102;2023-05-14T10:52:45;4.95;;;3.00;;
10801;SDS011;5453;50.852;7.102;2023-05-14T10:55:17;3.85;;;2.83;;
10801;SDS011;5453;50.852;7.102;2023-05-14T10:57:49;4.93;;;2.72;;
10801;SDS011;5453;50.852;7.102;2023-05-14T11:00:22;4.05;;;2.67;;
10801;SDS011;5453;50.852;7.102;2023-05-14T11:02:57;3.95;;;2.53;;
10801;SDS011;5453;50.852;7.102;2023-05-14T11:05:32;3.33;;;2.92;;
10801;SDS011;5453;50.852;7.102;2023-05-14T11:08:06;3.00;;;2.67;;
10801;SDS011;5453;50.852;7.102;2023-05-14T11:10:39;3.60;;;2.78;;
10801;SDS011;5453;50.852;7.102;2023-05-14T11:13:12;4.43;;;2.60;;
10801;SDS011;5453;50.852;7.102;2023-05-14T11:15:47;4.25;;;2.65;;
10801;SDS011;5453;50.852;7.102;2023-05-14T11:18:27;2.92;;;2.42;;
10801;SDS011;5453;50.852;7.102;2023-05-14T11:21:04;3.70;;;2.95;;
10801;SDS011;5453;50.852;7.102;2023-05-14T11:23:37;3.20;;;2.60;;
10801;SDS011;5453;50.852;7.102;2023-05-14T11:26:09;3.05;;;2.58;;
10801;SDS011;5453;50.852;7.102;2023-05-14T11:31:16;3.88;;;2.75;;
10801;SDS011;5453;50.852;7.102;2023-05-14T11:33:48;2.80;;;2.50;;
10801;SDS011;5453;50.852;7.102;2023-05-14T11:36:26;4.05;;;2.70;;
10801;SDS011;5453;50.852;7.102;2023-05-14T11:39:06;4.35;;;2.50;;
10801;SDS011;5453;50.852;7.102;2023-05-14T11:41:42;3.85;;;2.47;;
10801;SDS011;5453;50.852;7.102;2023-05-14T11:44:17;3.15;;;2.67;;
10801;SDS011;5453;50.852;7.102;2023-05-14T11:46:55;2.70;;;2.33;;
10801;SDS011;5453;50.852;7.102;2023-05-14T11:49:28;3.28;;;2.42;;
10801;SDS011;5453;50.852;7.102;2023-05-14T11:52:04;2.78;;;2.42;;
10801;SDS011;5453;50.852;7.102;2023-05-14T11:54:39;3.45;;;2.47;;
10801;SDS011;5453;50.852;7.102;2023-05-14T11:57:14;2.85;;;2.25;;
10801;SDS011;5453;50.852;7.102;2023-05-14T11:59:54;3.15;;;2.50;;
10801;SDS011;5453;50.852;7.102;2023-05-14T12:02:27;3.85;;;2.53;;
10801;SDS011;5453;50.852;7.102;2023-05-14T12:04:59;3.42;;;2.58;;
10801;SDS011;5453;50.852;7.102;2023-05-14T12:07:34;3.15;;;2.50;;
10801;SDS011;5453;50.852;7.102;2023-05-14T12:10:11;3.72;;;2.70;;
10801;SDS011;5453;50.852;7.102;2023-05-14T12:12:44;5.25;;;3.10;;
10801;SDS011;5453;50.852;7.102;2023-05-14T12:17:51;4.63;;;2.65;;
10801;SDS011;5453;50.852;7.102;2023-05-14T12:20:23;2.80;;;2.50;;
10801;SDS011;5453;50.852;7.102;2023-05-14T12:22:59;3.28;;;2.72;;
10801;SDS011;5453;50.852;7.102;2023-05-14T12:25:34;3.75;;;2.88;;
10801;SDS011;5453;50.852;7.102;2023-05-14T12:28:13;4.75;;;2.80;;
10801;SDS011;5453;50.852;7.102;2023-05-14T12:30:45;4.78;;;2.72;;
10801;SDS011;5453;50.852;7.102;2023-05-14T12:33:18;3.65;;;2.72;;
10801;SDS011;5453;50.852;7.102;2023-05-14T12:35:53;3.75;;;2.70;;
10801;SDS011;5453;50.852;7.102;2023-05-14T12:38:35;3.60;;;2.60;;
10801;SDS011;5453;50.852;7.102;2023-05-14T12:41:10;3.58;;;2.92;;
10801;SDS011;5453;50.852;7.102;2023-05-14T12:43:42;3.33;;;2.63;;
10801;SDS011;5453;50.852;7.102;2023-05-14T12:46:15;3.10;;;2.40;;
10801;SDS011;5453;50.852;7.102;2023-05-14T12:48:50;4.10;;;2.50;;
10801;SDS011;5453;50.852;7.102;2023-05-14T12:51:22;3.42;;;2.63;;
10801;SDS011;5453;50.852;7.102;2023-05-14T12:54:01;4.68;;;2.92;;
10801;SDS011;5453;50.852;7.102;2023-05-14T12:56:33;3.63;;;2.83;;
10801;SDS011;5453;50.852;7.102;2023-05-14T12:59:06;4.22;;;2.42;;
10801;SDS011;5453;50.852;7.102;2023-05-14T13:01:40;2.90;;;2.40;;
10801;SDS011;5453;50.852;7.102;2023-05-14T13:04:13;3.03;;;2.33;;
10801;SDS011;5453;50.852;7.102;2023-05-14T13:06:46;2.58;;;2.38;;
10801;SDS011;5453;50.852;7.102;2023-05-14T13:09:23;4.20;;;2.90;;
10801;SDS011;5453;50.852;7.102;2023-05-14T13:11:57;5.53;;;2.97;;
10801;SDS011;5453;50.852;7.102;2023-05-14T13:14:30;3.45;;;2.63;;
10801;SDS011;5453;50.852;7.102;2023-05-14T13:17:05;3.08;;;2.45;;
10801;SDS011;5453;50.852;7.102;2023-05-14T13:19:38;3.15;;;2.70;;
10801;SDS011;5453;50.852;7.102;2023-05-14T13:22:11;4.05;;;2.80;;
10801;SDS011;5453;50.852;7.102;2023-05-14T13:24:56;3.65;;;2.78;;
10801;SDS011;5453;50.852;7.102;2023-05-14T13:27:31;3.38;;;2.50;;
10801;SDS011;5453;50.852;7.102;2023-05-14T13:30:05;3.83;;;2.80;;
10801;SDS011;5453;50.852;7.102;2023-05-14T13:32:39;2.95;;;2.60;;
10801;SDS011;5453;50.852;7.102;2023-05-14T13:35:12;4.30;;;2.63;;
10801;SDS011;5453;50.852;7.102;2023-05-14T13:37:46;3.35;;;2.72;;
10801;SDS011;5453;50.852;7.102;2023-05-14T13:40:20;4.13;;;2.80;;
10801;SDS011;5453;50.852;7.102;2023-05-14T13:45:26;5.15;;;2.90;;
10801;SDS011;5453;50.852;7.102;2023-05-14T13:47:58;3.88;;;2.72;;
10801;SDS011;5453;50.852;7.102;2023-05-14T13:50:33;3.88;;;2.72;;
10801;SDS011;5453;50.852;7.102;2023-05-14T13:53:05;3.55;;;2.60;;
10801;SDS011;5453;50.852;7.102;2023-05-14T13:55:42;3.17;;;2.83;;
10801;SDS011;5453;50.852;7.102;2023-05-14T13:58:14;3.28;;;2.42;;
10801;SDS011;5453;50.852;7.102;2023-05-14T14:00:47;3.00;;;2.58;;
10801;SDS011;5453;50.852;7.102;2023-05-14T14:03:21;2.67;;;2.33;;
10801;SDS011;5453;50.852;7.102;2023-05-14T14:05:53;3.65;;;2.03;;
10801;SDS011;5453;50.852;7.102;2023-05-14T14:08:28;3.33;;;2.00;;
10801;SDS011;5453;50.852;7.102;2023-05-14T14:11:01;2.10;;;1.83;;
10801;SDS011;5453;50.852;7.102;2023-05-14T14:13:35;3.05;;;2.03;;
10801;SDS011;5453;50.852;7.102;2023-05-14T14:16:07;2.25;;;1.98;;
10801;SDS011;5453;50.852;7.102;2023-05-14T14:18:43;3.28;;;2.03;;
10801;SDS011;5453;50.852;7.102;2023-05-14T14:21:15;3.03;;;2.03;;
10801;SDS011;5453;50.852;7.102;2023-05-14T14:23:50;3.05;;;2.00;;
10801;SDS011;5453;50.852;7.102;2023-05-14T14:29:00;2.58;;;1.70;;
10801;SDS011;5453;50.852;7.102;2023-05-14T14:31:34;2.47;;;2.03;;
10801;SDS011;5453;50.852;7.102;2023-05-14T14:34:09;3.05;;;2.22;;
10801;SDS011;5453;50.852;7.102;2023-05-14T14:36:44;2.92;;;2.15;;
10801;SDS011;5453;50.852;7.102;2023-05-14T14:39:16;2.35;;;1.70;;
10801;SDS011;5453;50.852;7.102;2023-05-14T14:41:53;2.10;;;1.75;;
10801;SDS011;5453;50.852;7.102;2023-05-14T14:44:29;2.13;;;1.73;;
10801;SDS011;5453;50.852;7.102;2023-05-14T14:47:01;2.03;;;1.80;;
10801;SDS011;5453;50.852;7.102;2023-05-14T14:49:35;2.75;;;1.80;;
10801;SDS011;5453;50.852;7.102;2023-05-14T14:52:10;2.50;;;1.88;;
10801;SDS011;5453;50.852;7.102;2023-05-14T14:54:42;3.42;;;2.13;;
10801;SDS011;5453;50.852;7.102;2023-05-14T14:57:18;2.03;;;1.80;;
10801;SDS011;5453;50.852;7.102;2023-05-14T14:59:50;2.15;;;1.70;;
10801;SDS011;5453;50.852;7.102;2023-05-14T15:02:23;2.08;;;1.65;;
10801;SDS011;5453;50.852;7.102;2023-05-14T15:04:57;2.58;;;1.75;;
10801;SDS011;5453;50.852;7.102;2023-05-14T15:07:29;2.40;;;1.70;;
10801;SDS011;5453;50.852;7.102;2023-05-14T15:10:02;2.25;;;1.88;;
10801;SDS011;5453;50.852;7.102;2023-05-14T15:12:39;2.75;;;1.90;;
10801;SDS011;5453;50.852;7.102;2023-05-14T15:17:44;2.95;;;1.60;;
10801;SDS011;5453;50.852;7.102;2023-05-14T15:20:16;3.00;;;1.70;;
10801;SDS011;5453;50.852;7.102;2023-05-14T15:22:49;2.40;;;1.73;;
10801;SDS011;5453;50.852;7.102;2023-05-14T15:27:59;2.40;;;1.60;;
10801;SDS011;5453;50.852;7.102;2023-05-14T15:30:31;3.35;;;1.77;;
10801;SDS011;5453;50.852;7.102;2023-05-14T15:33:06;2.17;;;1.55;;
10801;SDS011;5453;50.852;7.102;2023-05-14T15:35:39;3.60;;;1.90;;
10801;SDS011;5453;50.852;7.102;2023-05-14T15:38:11;2.63;;;1.70;;
10801;SDS011;5453;50.852;7.102;2023-05-14T15:40:44;2.10;;;1.33;;
10801;SDS011;5453;50.852;7.102;2023-05-14T15:43:19;2.15;;;1.52;;
10801;SDS011;5453;50.852;7.102;2023-05-14T15:45:52;2.00;;;1.33;;
10801;SDS011;5453;50.852;7.102;2023-05-14T15:48:25;1.98;;;1.60;;
10801;SDS011;5453;50.852;7.102;2023-05-14T15:50:57;2.20;;;1.40;;
10801;SDS011;5453;50.852;7.102;2023-05-14T15:53:29;1.85;;;1.58;;
10801;SDS011;5453;50.852;7.102;2023-05-14T15:56:02;2.28;;;1.63;;